Time;durP1;ratioP1;P1;durP2;ratioP2;P2;SDS_P1;SDS_P2;PMS_P1;PMS_P2;Temp;Humidity;BMP_temperature;BMP_pressure;BME280_temperature;BME280_humidity;BME280_pressure;Samples;Min_cycle;Max_cycle;Signal;HPM_P1;HPM_P2
2022/03/07 00:02:04;;;;;;;;;60.25;45.75;;;;;4.11;52.68;102102.47;5009655;28;45487;-70
2022/03/07 00:04:29;;;;;;;;;58.25;44.00;;;;;4.08;52.91;102098.13;5010056;28;45490;-70
2022/03/07 00:06:55;;;;;;;;;68.75;49.75;;;;;4.06;53.20;102097.22;5013692;28;45469;-70
2022/03/07 00:09:20;;;;;;;;;71.75;49.50;;;;;4.03;53.00;102096.38;4992777;28;46423;-70
2022/03/07 00:11:46;;;;;;;;;63.25;49.25;;;;;4.01;53.10;102098.06;4991812;28;45332;-70
2022/03/07 00:14:12;;;;;;;;;59.00;46.00;;;;;4.00;53.52;102091.13;5009661;28;45293;-70
2022/03/07 00:16:37;;;;;;;;;62.75;47.75;;;;;3.97;53.42;102085.91;5010014;28;45279;-70
2022/03/07 00:19:02;;;;;;;;;66.75;44.25;;;;;3.95;53.44;102100.63;5012136;28;46193;-70
2022/03/07 00:21:28;;;;;;;;;64.00;48.00;;;;;3.93;53.63;102098.03;5013625;28;45210;-70
2022/03/07 00:23:53;;;;;;;;;48.25;43.00;;;;;3.91;53.56;102098.03;5009898;28;45287;-70
2022/03/07 00:26:19;;;;;;;;;58.00;45.67;;;;;3.88;53.87;102098.00;5009699;28;45467;-70
2022/03/07 00:28:46;;;;;;;;;61.00;41.75;;;;;3.85;53.30;102089.28;5012343;28;46028;-70
2022/03/07 00:31:12;;;;;;;;;62.25;42.25;;;;;3.84;53.60;102100.56;5014234;28;45785;-70
2022/03/07 00:33:37;;;;;;;;;66.25;46.00;;;;;3.81;53.74;102103.13;5017300;28;45408;-70
2022/03/07 00:36:04;;;;;;;;;62.00;47.25;;;;;3.81;53.45;102108.34;5015161;28;45500;-70
2022/03/07 00:38:30;;;;;;;;;63.00;45.00;;;;;3.77;53.36;102107.47;5012178;28;45375;-70
2022/03/07 00:40:56;;;;;;;;;58.50;47.50;;;;;3.73;53.83;102103.09;5015224;28;46746;-70
2022/03/07 00:43:21;;;;;;;;;63.00;47.00;;;;;3.71;54.02;102104.81;5013265;28;45399;-70
2022/03/07 00:45:48;;;;;;;;;61.75;45.25;;;;;3.69;54.04;102098.72;5016291;28;45391;-70
2022/03/07 00:48:14;;;;;;;;;59.75;47.75;;;;;3.66;54.56;102103.91;5014142;28;46389;-70
2022/03/07 00:50:42;;;;;;;;;57.25;46.00;;;;;3.65;54.18;102110.84;5015814;28;45431;-69
2022/03/07 00:53:09;;;;;;;;;55.75;45.25;;;;;3.63;54.33;102103.88;5016548;28;45734;-69
2022/03/07 00:55:35;;;;;;;;;57.25;47.50;;;;;3.61;54.03;102108.22;5011870;28;45463;-69
2022/03/07 00:58:01;;;;;;;;;61.75;48.00;;;;;3.59;54.24;102102.13;5016319;28;45443;-69
2022/03/07 01:00:26;;;;;;;;;50.00;44.33;;;;;3.56;54.58;102105.56;5012880;28;50764;-69
2022/03/07 01:02:51;;;;;;;;;64.67;46.00;;;;;3.55;54.36;102105.53;5015443;28;45475;-69
2022/03/07 01:05:18;;;;;;;;;59.25;45.25;;;;;3.52;54.00;102095.13;5015246;28;45401;-69
2022/03/07 01:07:43;;;;;;;;;59.75;48.75;;;;;3.50;54.43;102104.63;5011994;28;46233;-69
2022/03/07 01:10:09;;;;;;;;;54.75;41.25;;;;;3.47;54.94;102102.03;5015895;28;46053;-69
2022/03/07 01:12:34;;;;;;;;;53.00;43.50;;;;;3.43;54.81;102098.53;5016426;28;45347;-69
2022/03/07 01:14:59;;;;;;;;;59.50;44.75;;;;;3.45;54.84;102101.16;5012727;28;45848;-69
2022/03/07 01:17:25;;;;;;;;;60.00;46.50;;;;;3.44;54.74;102097.66;5014957;28;58187;-69
2022/03/07 01:19:50;;;;;;;;;63.33;46.00;;;;;3.42;54.49;102103.72;5013481;28;45475;-69
2022/03/07 01:22:15;;;;;;;;;58.00;43.00;;;;;3.40;54.84;102098.53;5016146;28;45309;-69
2022/03/07 01:24:41;;;;;;;;;51.00;43.25;;;;;3.39;54.74;102105.44;5016103;28;45436;-69
2022/03/07 01:27:06;;;;;;;;;41.67;40.00;;;;;3.36;55.10;102100.22;5014192;28;46036;-69
2022/03/07 01:29:31;;;;;;;;;57.50;41.50;;;;;3.35;54.62;102092.41;5010911;28;45396;-69
2022/03/07 01:31:57;;;;;;;;;51.25;44.50;;;;;3.33;54.38;102096.69;5015229;28;45443;-69
2022/03/07 01:34:22;;;;;;;;;57.50;44.75;;;;;3.30;54.88;102094.97;5014192;28;45424;-69
2022/03/07 01:36:47;;;;;;;;;57.33;44.67;;;;;3.29;55.02;102097.53;5015322;28;58379;-69
2022/03/07 01:39:13;;;;;;;;;65.00;46.67;;;;;3.26;54.99;102093.19;4992951;28;46010;-69
2022/03/07 01:41:38;;;;;;;;;63.33;44.67;;;;;3.25;55.51;102094.06;4993615;28;45439;-69
2022/03/07 01:44:03;;;;;;;;;48.00;37.33;;;;;3.24;55.59;102100.09;5011149;28;45541;-69
2022/03/07 01:46:32;;;;;;;;;57.75;45.75;;;;;3.22;55.54;102093.16;5011193;28;45610;-69
2022/03/07 01:48:57;;;;;;;;;46.50;39.50;;;;;3.21;55.57;102087.09;5015420;28;45554;-69
2022/03/07 01:51:23;;;;;;;;;46.25;38.50;;;;;3.20;55.29;102090.53;5016664;28;45632;-69
2022/03/07 01:53:48;;;;;;;;;45.00;40.50;;;;;3.17;55.66;102084.44;5011435;28;45420;-69
2022/03/07 01:56:14;;;;;;;;;62.75;44.50;;;;;3.14;56.01;102086.16;5011045;28;45431;-69
2022/03/07 01:58:39;;;;;;;;;42.75;38.75;;;;;3.13;55.49;102080.94;5010008;28;45551;-69
2022/03/07 02:01:04;;;;;;;;;49.50;42.50;;;;;3.10;55.72;102079.19;5015088;28;45529;-69
2022/03/07 02:03:30;;;;;;;;;58.50;42.25;;;;;3.09;55.72;102077.47;5015375;28;45539;-69
2022/03/07 02:05:55;;;;;;;;;59.00;45.00;;;;;3.07;55.85;102075.69;5014448;28;46004;-69
2022/03/07 02:08:21;;;;;;;;;49.75;43.75;;;;;3.04;55.44;102073.94;5015441;28;45376;-69
2022/03/07 02:10:46;;;;;;;;;55.25;41.75;;;;;3.02;56.05;102069.56;5010979;28;45392;-69
2022/03/07 02:13:16;;;;;;;;;59.25;46.50;;;;;3.00;56.23;102066.09;5012632;28;45748;-69
2022/03/07 02:15:42;;;;;;;;;55.50;41.25;;;;;2.98;55.95;102062.63;5014012;28;45490;-70
2022/03/07 02:18:07;;;;;;;;;63.50;45.00;;;;;2.97;56.19;102063.47;5014652;28;45488;-69
2022/03/07 02:20:33;;;;;;;;;50.25;38.75;;;;;2.93;55.95;102061.72;5015079;28;45422;-69
2022/03/07 02:22:58;;;;;;;;;55.00;40.50;;;;;2.88;55.93;102057.34;5015149;28;45382;-69
2022/03/07 02:25:24;;;;;;;;;63.00;44.75;;;;;2.85;56.49;102059.91;5010805;28;45871;-69
2022/03/07 02:27:49;;;;;;;;;60.75;45.50;;;;;2.81;56.80;102055.53;5014557;28;45325;-69
2022/03/07 02:30:14;;;;;;;;;43.00;36.33;;;;;2.77;56.89;102051.19;5015411;28;45363;-69
2022/03/07 02:32:42;;;;;;;;;49.00;39.25;;;;;2.78;56.83;102052.91;5014107;28;45669;-69
2022/03/07 02:35:07;;;;;;;;;55.50;38.00;;;;;2.75;56.49;102052.88;5011290;28;45904;-69
2022/03/07 02:37:33;;;;;;;;;51.50;39.50;;;;;2.73;57.20;102044.22;5014435;28;45385;-69
2022/03/07 02:39:58;;;;;;;;;47.75;35.75;;;;;2.71;56.87;102042.44;5014308;28;45509;-69
2022/03/07 02:42:24;;;;;;;;;50.50;38.75;;;;;2.69;57.19;102039.84;5011625;28;45375;-69
2022/03/07 02:44:50;;;;;;;;;48.00;38.75;;;;;2.69;57.11;102041.56;5014402;28;46420;-69
2022/03/07 02:47:15;;;;;;;;;45.50;36.25;;;;;2.66;56.49;102037.19;5010436;28;45282;-69
2022/03/07 02:49:41;;;;;;;;;45.00;36.00;;;;;2.64;56.80;102036.31;5013858;28;45285;-69
2022/03/07 02:52:08;;;;;;;;;49.00;35.00;;;;;2.64;56.93;102035.44;5012474;28;45187;-69
2022/03/07 02:54:34;;;;;;;;;51.25;42.75;;;;;2.60;56.64;102025.03;5012205;28;46163;-69
2022/03/07 02:56:59;;;;;;;;;49.75;40.25;;;;;2.57;57.82;102027.59;5014860;28;45418;-69
2022/03/07 02:59:24;;;;;;;;;40.33;37.67;;;;;2.56;57.22;102032.78;5011942;28;45491;-69
2022/03/07 03:01:50;;;;;;;;;44.67;32.00;;;;;2.55;57.14;102025.84;5009975;28;45549;-69
2022/03/07 03:04:15;;;;;;;;;53.00;39.67;;;;;2.53;57.03;102032.75;5014019;28;46180;-69
2022/03/07 03:06:41;;;;;;;;;45.67;34.33;;;;;2.51;57.33;102026.69;5014449;28;45596;-69
2022/03/07 03:09:07;;;;;;;;;47.75;38.50;;;;;2.49;57.23;102028.38;5014608;28;45351;-69
2022/03/07 03:11:33;;;;;;;;;51.75;37.50;;;;;2.47;57.23;102025.78;5010286;28;45908;-69
2022/03/07 03:13:58;;;;;;;;;45.25;34.50;;;;;2.45;57.25;102019.66;5009626;28;46040;-69
2022/03/07 03:16:23;;;;;;;;;36.50;35.00;;;;;2.45;57.78;102018.81;5010115;28;45483;-69
2022/03/07 03:18:49;;;;;;;;;30.67;23.33;;;;;2.42;57.28;102017.06;5012539;28;46833;-69
2022/03/07 03:21:14;;;;;;;;;56.67;37.67;;;;;2.41;57.40;102022.25;5014630;28;45492;-69
2022/03/07 03:23:39;;;;;;;;;44.25;37.25;;;;;2.40;57.91;102017.88;5007638;28;45494;-69
2022/03/07 03:26:05;;;;;;;;;41.00;35.33;;;;;2.37;57.60;102015.28;5008158;28;45469;-69
2022/03/07 03:28:30;;;;;;;;;48.25;36.00;;;;;2.35;57.16;102010.06;5002030;28;45447;-69
2022/03/07 03:30:56;;;;;;;;;46.00;36.25;;;;;2.33;57.79;102019.53;5013183;28;45450;-69
2022/03/07 03:33:21;;;;;;;;;41.75;33.25;;;;;2.31;57.97;102016.06;5014955;28;46121;-69
2022/03/07 03:35:47;;;;;;;;;51.25;38.00;;;;;2.29;58.43;102025.53;5010155;28;45456;-69
2022/03/07 03:38:13;;;;;;;;;48.50;34.75;;;;;2.28;57.99;102016.03;5013699;28;45567;-69
2022/03/07 03:40:38;;;;;;;;;41.00;31.75;;;;;2.24;58.02;102014.25;5009152;28;45436;-69
2022/03/07 03:43:04;;;;;;;;;46.25;33.75;;;;;2.25;57.94;102032.44;5012009;28;45923;-69
2022/03/07 03:45:30;;;;;;;;;42.25;37.25;;;;;2.22;58.19;102026.34;5010403;28;45373;-69
2022/03/07 03:47:56;;;;;;;;;41.00;31.75;;;;;2.22;58.15;102028.94;5013526;28;45407;-69
2022/03/07 03:50:21;;;;;;;;;44.75;39.00;;;;;2.18;58.31;102038.38;5011745;28;45353;-69
2022/03/07 03:52:47;;;;;;;;;45.00;36.75;;;;;2.17;58.32;102026.28;5009332;28;46068;-69
2022/03/07 03:55:15;;;;;;;;;46.50;35.00;;;;;2.17;58.27;102038.38;5011718;28;45497;-69
2022/03/07 03:57:41;;;;;;;;;53.75;40.00;;;;;2.15;58.67;102025.41;5013182;28;45307;-69
2022/03/07 04:00:08;;;;;;;;;43.00;32.75;;;;;2.16;58.43;102029.72;5013246;28;45371;-69
2022/03/07 04:02:34;;;;;;;;;53.00;35.50;;;;;2.14;58.74;102026.25;5013071;28;47146;-69
2022/03/07 04:04:59;;;;;;;;;38.25;26.00;;;;;2.12;57.89;102030.53;5017094;28;45396;-69
2022/03/07 04:07:25;;;;;;;;;46.75;35.75;;;;;2.11;58.25;102033.97;5013560;28;45293;-69
2022/03/07 04:09:50;;;;;;;;;42.25;34.75;;;;;2.08;58.41;102029.63;5016717;28;45621;-69
2022/03/07 04:12:15;;;;;;;;;40.00;30.67;;;;;2.07;58.64;102027.88;5017965;28;46356;-69
2022/03/07 04:14:40;;;;;;;;;37.00;24.67;;;;;2.06;58.66;102033.06;5012004;28;45404;-69
2022/03/07 04:17:06;;;;;;;;;39.67;33.00;;;;;2.03;58.19;102022.63;5016427;28;50869;-69
2022/03/07 04:19:32;;;;;;;;;47.25;32.00;;;;;2.02;58.67;102026.09;5013877;28;45600;-69
2022/03/07 04:21:57;;;;;;;;;32.25;24.75;;;;;2.00;58.61;102033.84;5027622;28;46988;-69
2022/03/07 04:24:22;;;;;;;;;47.00;33.75;;;;;1.98;58.60;102029.47;5015723;28;45611;-69
2022/03/07 04:26:47;;;;;;;;;46.33;38.00;;;;;1.96;59.02;102026.00;5016412;28;45386;-69
2022/03/07 04:29:14;;;;;;;;;36.33;32.33;;;;;1.95;58.71;102030.31;5011742;28;53739;-69
2022/03/07 04:31:42;;;;;;;;;34.00;33.50;;;;;1.94;58.98;102030.31;5013817;28;46156;-69
2022/03/07 04:34:08;;;;;;;;;38.00;27.25;;;;;1.90;59.24;102029.38;5014960;28;45308;-69
2022/03/07 04:36:35;;;;;;;;;43.25;32.00;;;;;1.90;59.07;102033.72;5014595;28;45320;-69
2022/03/07 04:39:05;;;;;;;;;53.25;33.25;;;;;1.89;58.48;102034.56;5012844;28;45622;-69
2022/03/07 04:41:31;;;;;;;;;43.50;33.25;;;;;1.89;58.86;102039.75;5016248;28;45512;-69
2022/03/07 04:43:56;;;;;;;;;40.00;35.25;;;;;1.86;59.05;102042.28;5011889;28;46817;-69
2022/03/07 04:46:22;;;;;;;;;39.00;34.25;;;;;1.85;58.64;102044.00;5016393;28;46060;-69
2022/03/07 04:48:47;;;;;;;;;42.00;35.25;;;;;1.85;59.04;102043.13;4998373;28;45683;-69
2022/03/07 04:51:12;;;;;;;;;43.25;34.25;;;;;1.82;58.76;102046.53;5016806;28;46146;-69
2022/03/07 04:53:38;;;;;;;;;47.00;32.50;;;;;1.81;59.23;102047.41;5011921;28;45574;-69
2022/03/07 04:56:03;;;;;;;;;31.67;27.67;;;;;1.77;59.19;102040.44;5016253;28;45356;-70
2022/03/07 04:58:29;;;;;;;;;28.25;26.50;;;;;1.78;58.82;102047.38;5011610;28;45451;-69
2022/03/07 05:00:54;;;;;;;;;37.67;30.33;;;;;1.75;59.02;102039.53;5016072;28;46645;-70
2022/03/07 05:03:21;;;;;;;;;51.50;32.75;;;;;1.72;59.47;102042.97;5012730;28;45495;-70
2022/03/07 05:05:47;;;;;;;;;39.25;29.50;;;;;1.68;59.34;102040.31;5013848;28;45911;-70
2022/03/07 05:08:12;;;;;;;;;43.75;34.25;;;;;1.69;59.40;102048.09;5016259;28;45464;-70
2022/03/07 05:10:37;;;;;;;;;49.00;32.00;;;;;1.64;59.51;102044.56;5011232;28;46065;-70
2022/03/07 05:13:02;;;;;;;;;39.75;35.25;;;;;1.66;59.12;102050.63;5014462;28;45366;-69
2022/03/07 05:15:28;;;;;;;;;44.00;32.67;;;;;1.64;59.15;102051.47;5015350;28;45531;-69
2022/03/07 05:17:54;;;;;;;;;42.00;26.50;;;;;1.62;59.46;102047.97;5011885;28;45479;-69
2022/03/07 05:20:22;;;;;;;;;42.75;33.50;;;;;1.60;59.20;102054.88;5014817;28;46201;-69
2022/03/07 05:22:47;;;;;;;;;33.75;29.50;;;;;1.58;59.51;102052.25;5011814;28;45487;-69
2022/03/07 05:25:14;;;;;;;;;44.75;30.75;;;;;1.56;59.62;102046.16;5014525;28;45417;-69
2022/03/07 05:27:40;;;;;;;;;40.25;34.00;;;;;1.55;59.50;102052.19;5016189;28;45374;-69
2022/03/07 05:30:07;;;;;;;;;38.25;33.25;;;;;1.54;59.60;102050.47;4993908;28;45809;-69
2022/03/07 05:32:32;;;;;;;;;34.00;25.75;;;;;1.51;59.53;102053.00;5015718;28;45499;-69
2022/03/07 05:34:58;;;;;;;;;42.67;30.33;;;;;1.50;59.67;102044.34;5011579;28;45325;-69
2022/03/07 05:37:24;;;;;;;;;41.75;34.25;;;;;1.49;59.67;102047.81;5011763;28;45293;-69
2022/03/07 05:39:49;;;;;;;;;36.00;30.50;;;;;1.49;60.03;102052.97;5015179;28;47791;-69
2022/03/07 05:42:15;;;;;;;;;40.25;26.00;;;;;1.46;59.92;102047.78;5013973;28;45452;-69
2022/03/07 05:44:40;;;;;;;;;35.50;26.75;;;;;1.46;59.51;102039.09;5010576;28;45624;-70
2022/03/07 05:47:06;;;;;;;;;39.25;29.50;;;;;1.45;59.82;102045.13;5011651;28;45495;-70
2022/03/07 05:49:31;;;;;;;;;30.50;27.50;;;;;1.42;59.83;102048.56;5013657;28;45967;-70
2022/03/07 05:51:57;;;;;;;;;42.25;33.25;;;;;1.40;60.08;102051.97;5010098;28;45282;-69
2022/03/07 05:54:22;;;;;;;;;32.00;29.25;;;;;1.35;59.99;102046.72;5012501;28;45373;-69
2022/03/07 05:56:47;;;;;;;;;40.50;33.50;;;;;1.35;60.21;102051.88;5011531;28;47981;-69
2022/03/07 05:59:13;;;;;;;;;46.33;34.00;;;;;1.34;59.91;102055.34;5011242;28;46166;-69
2022/03/07 06:01:38;;;;;;;;;47.50;30.75;;;;;1.28;59.64;102048.34;5011275;28;45274;-69
2022/03/07 06:04:04;;;;;;;;;40.75;28.00;;;;;1.31;60.51;102063.06;5015015;28;45371;-69
2022/03/07 06:06:29;;;;;;;;;34.00;29.00;;;;;1.32;60.07;102061.34;5013286;28;45436;-69
2022/03/07 06:08:55;;;;;;;;;45.50;33.75;;;;;1.29;60.40;102065.63;5012294;28;45605;-70
2022/03/07 06:11:20;;;;;;;;;43.00;35.00;;;;;1.29;60.53;102050.06;5013117;28;45409;-70
2022/03/07 06:13:46;;;;;;;;;43.50;34.50;;;;;1.27;60.28;102064.72;5015223;28;45790;-70
2022/03/07 06:16:12;;;;;;;;;41.75;35.00;;;;;1.26;60.53;102059.53;5015368;28;45419;-71
2022/03/07 06:18:37;;;;;;;;;38.25;30.50;;;;;1.24;60.52;102063.78;5013865;28;46068;-70
2022/03/07 06:21:03;;;;;;;;;45.50;32.25;;;;;1.23;60.50;102067.25;5010569;28;45640;-70
2022/03/07 06:23:29;;;;;;;;;31.50;27.00;;;;;1.20;60.60;102070.66;5014776;28;45439;-70
2022/03/07 06:25:54;;;;;;;;;44.00;32.50;;;;;1.19;60.25;102070.63;5009316;28;45336;-70
2022/03/07 06:28:19;;;;;;;;;41.33;31.00;;;;;1.18;60.90;102069.75;5011548;28;45321;-70
2022/03/07 06:30:46;;;;;;;;;35.33;30.00;;;;;1.18;60.61;102058.53;5013324;28;45474;-70
2022/03/07 06:33:13;;;;;;;;;33.00;27.50;;;;;1.19;60.79;102065.44;5015661;28;45455;-70
2022/03/07 06:35:38;;;;;;;;;44.50;33.75;;;;;1.20;60.69;102065.47;5011519;28;45404;-70
2022/03/07 06:38:03;;;;;;;;;41.67;30.00;;;;;1.20;60.61;102062.91;5011149;28;54620;-70
2022/03/07 06:40:29;;;;;;;;;42.67;31.67;;;;;1.22;60.67;102061.19;5011758;28;52554;-70
2022/03/07 06:42:55;;;;;;;;;44.50;33.50;;;;;1.25;60.58;102065.53;5014839;28;45606;-70
2022/03/07 06:45:20;;;;;;;;;49.25;37.25;;;;;1.26;60.79;102064.72;5016142;28;45361;-70
2022/03/07 06:47:46;;;;;;;;;38.00;31.50;;;;;1.29;60.93;102073.38;5010701;28;46095;-70
2022/03/07 06:50:13;;;;;;;;;39.75;28.25;;;;;1.32;61.12;102072.56;5013931;28;45753;-69
2022/03/07 06:52:38;;;;;;;;;38.00;33.25;;;;;1.37;61.13;102072.66;5009753;28;45369;-70
2022/03/07 06:55:04;;;;;;;;;55.50;42.25;;;;;1.40;61.09;102077.88;4995925;28;45511;-70
2022/03/07 06:57:30;;;;;;;;;50.25;38.00;;;;;1.44;60.95;102072.75;5012183;28;46088;-70
2022/03/07 06:59:55;;;;;;;;;43.50;34.25;;;;;1.50;60.81;102083.22;5011331;28;45349;-69
2022/03/07 07:02:21;;;;;;;;;46.50;36.00;;;;;1.55;60.80;102081.56;5014342;28;45686;-70
2022/03/07 07:04:46;;;;;;;;;43.75;33.75;;;;;1.62;60.86;102079.97;5010593;28;45337;-70
2022/03/07 07:07:12;;;;;;;;;56.75;35.00;;;;;1.68;60.74;102076.59;5011542;28;45258;-70
2022/03/07 07:09:37;;;;;;;;;44.00;31.50;;;;;1.74;60.21;102068.91;5012349;28;45866;-69
2022/03/07 07:12:03;;;;;;;;;38.75;31.25;;;;;1.82;60.54;102078.53;5013715;28;45548;-70
2022/03/07 07:14:29;;;;;;;;;41.75;32.25;;;;;1.91;60.71;102074.31;5014464;28;45290;-70
2022/03/07 07:16:55;;;;;;;;;40.25;30.25;;;;;2.01;60.32;102071.88;5013860;28;45472;-69
2022/03/07 07:19:20;;;;;;;;;44.50;32.25;;;;;2.14;59.99;102083.31;5010914;28;45499;-69
2022/03/07 07:21:46;;;;;;;;;32.75;26.00;;;;;2.22;59.73;102070.44;5012616;28;45376;-69
2022/03/07 07:24:11;;;;;;;;;36.33;31.00;;;;;2.30;59.72;102074.88;5013226;28;45537;-69
2022/03/07 07:26:37;;;;;;;;;44.25;32.75;;;;;2.44;59.70;102067.22;5005644;28;46118;-69
2022/03/07 07:29:03;;;;;;;;;34.50;31.75;;;;;2.87;59.66;102071.19;5012559;28;45611;-69
2022/03/07 07:31:28;;;;;;;;;40.75;33.25;;;;;3.44;59.42;102073.41;5013317;28;45502;-69
2022/03/07 07:33:53;;;;;;;;;35.67;28.00;;;;;4.13;58.47;102064.34;5013596;28;45494;-70
2022/03/07 07:36:19;;;;;;;;;40.50;32.75;;;;;4.82;57.43;102075.00;4995919;28;47074;-70
2022/03/07 07:38:44;;;;;;;;;49.00;38.00;;;;;5.19;56.47;102068.09;5010489;28;45533;-70
2022/03/07 07:41:10;;;;;;;;;40.33;33.33;;;;;5.41;55.49;102069.81;5012863;28;45318;-70
2022/03/07 07:43:36;;;;;;;;;34.75;32.25;;;;;5.87;55.61;102068.91;5013421;28;45424;-70
2022/03/07 07:46:02;;;;;;;;;47.50;38.25;;;;;6.54;54.78;102064.34;5013198;28;46024;-70
2022/03/07 07:48:27;;;;;;;;;37.25;34.25;;;;;7.25;53.47;102063.88;5009659;28;45497;-70
2022/03/07 07:50:53;;;;;;;;;48.00;38.67;;;;;7.77;52.54;102066.03;5010679;28;45452;-70
2022/03/07 07:53:18;;;;;;;;;48.00;37.00;;;;;8.45;52.97;102064.41;5012994;28;45445;-70
2022/03/07 07:55:43;;;;;;;;;46.75;38.00;;;;;9.47;51.97;102058.50;5010008;28;45809;-71
2022/03/07 07:58:09;;;;;;;;;46.75;38.75;;;;;10.68;50.23;102057.03;5010152;28;45727;-70
2022/03/07 08:00:34;;;;;;;;;40.75;29.50;;;;;11.77;49.43;102053.44;5017336;28;45280;-70
2022/03/07 08:03:00;;;;;;;;;55.50;39.50;;;;;12.17;46.39;102055.03;5013767;28;45447;-70
2022/03/07 08:05:25;;;;;;;;;49.00;36.75;;;;;13.01;45.52;102059.53;5013448;28;45392;-70
2022/03/07 08:07:50;;;;;;;;;42.75;39.75;;;;;14.01;46.40;102052.59;5009794;28;45424;-70
2022/03/07 08:10:17;;;;;;;;;48.50;38.75;;;;;15.03;43.86;102046.94;5011190;28;45809;-70
2022/03/07 08:12:44;;;;;;;;;45.75;37.25;;;;;15.38;41.61;102053.44;5012647;28;45508;-70
2022/03/07 08:15:12;;;;;;;;;49.00;40.50;;;;;16.05;41.73;102047.03;5009768;28;46249;-70
2022/03/07 08:17:50;;;;;;;;;46.50;38.00;;;;;17.39;40.08;102039.75;5010823;28;46284;-70
2022/03/07 08:20:17;;;;;;;;;44.75;37.75;;;;;18.35;41.10;102041.81;5013560;28;45455;-70
2022/03/07 08:22:44;;;;;;;;;49.50;37.75;;;;;19.14;38.97;102037.31;5009376;28;45456;-70
2022/03/07 08:25:11;;;;;;;;;46.75;35.25;;;;;20.00;36.92;102033.06;5011639;28;45380;-70
2022/03/07 08:27:37;;;;;;;;;46.50;35.25;;;;;20.72;35.33;102036.50;5012049;28;45531;-70
2022/03/07 08:30:08;;;;;;;;;49.00;39.00;;;;;21.14;35.96;102031.97;5013906;28;45521;-70
2022/03/07 08:32:35;;;;;;;;;46.00;36.75;;;;;21.61;33.18;102042.16;5008677;28;45515;-70
2022/03/07 08:35:00;;;;;;;;;42.75;37.25;;;;;22.36;34.61;102041.41;5008640;28;45988;-69
2022/03/07 08:37:26;;;;;;;;;64.50;51.00;;;;;22.71;31.57;102041.53;5024171;28;45324;-71
2022/03/07 08:39:51;;;;;;;;;47.50;35.75;;;;;22.95;32.16;102038.00;5013239;28;45324;-71
2022/03/07 08:42:17;;;;;;;;;46.50;36.50;;;;;23.37;30.03;102028.53;5008693;28;45513;-71
2022/03/07 08:44:42;;;;;;;;;44.50;36.50;;;;;23.78;31.20;102020.00;5008719;28;45922;-70
2022/03/07 08:47:09;;;;;;;;;47.00;38.50;;;;;24.42;30.54;102022.94;5010442;28;45401;-70
2022/03/07 08:49:35;;;;;;;;;50.00;37.50;;;;;25.09;28.98;102021.94;5010245;28;45536;-70
2022/03/07 08:52:00;;;;;;;;;48.25;39.25;;;;;25.86;27.77;102016.22;5015983;28;45539;-70
2022/03/07 08:54:25;;;;;;;;;46.25;35.25;;;;;26.00;28.06;102023.13;5028652;28;48078;-70
2022/03/07 08:56:51;;;;;;;;;41.75;35.75;;;;;26.21;27.00;102017.66;5015535;28;45451;-71
2022/03/07 08:59:16;;;;;;;;;44.00;34.50;;;;;26.38;26.95;102017.00;5014344;28;45407;-70
2022/03/07 09:01:41;;;;;;;;;46.25;37.50;;;;;26.74;25.95;102009.31;5015739;28;48520;-70
2022/03/07 09:04:07;;;;;;;;;46.75;36.00;;;;;26.96;25.34;102018.97;5014397;28;53778;-70
2022/03/07 09:06:32;;;;;;;;;46.00;35.00;;;;;27.04;25.13;102024.47;5015011;28;45413;-70
2022/03/07 09:08:57;;;;;;;;;42.25;34.75;;;;;27.21;24.49;102014.88;5012760;28;45510;-70
2022/03/07 09:11:23;;;;;;;;;46.25;35.25;;;;;27.54;24.51;102008.97;5014640;28;45452;-70
2022/03/07 09:13:48;;;;;;;;;41.75;32.75;;;;;28.14;23.29;102016.78;5015788;28;46234;-70
2022/03/07 09:16:17;;;;;;;;;209.75;163.25;;;;;28.23;22.71;102015.00;5014848;28;45428;-70
2022/03/07 09:18:42;;;;;;;;;46.50;35.50;;;;;27.66;23.33;102004.25;5014931;28;47180;-70
2022/03/07 09:21:07;;;;;;;;;38.25;33.50;;;;;27.86;23.03;102015.03;5016752;28;45308;-70
2022/03/07 09:23:37;;;;;;;;;40.25;35.25;;;;;28.40;23.15;102011.53;5002024;28;46238;-69
2022/03/07 09:26:04;;;;;;;;;40.00;35.50;;;;;28.87;22.55;102003.25;5015121;28;45526;-70
2022/03/07 09:28:30;;;;;;;;;43.25;32.75;;;;;29.10;21.88;102007.19;5008566;28;45394;-70
2022/03/07 09:30:55;;;;;;;;;40.25;34.75;;;;;29.49;22.18;102012.22;5013148;28;45509;-70
2022/03/07 09:33:20;;;;;;;;;44.75;35.00;;;;;30.23;22.29;102012.69;5010469;28;46139;-70
2022/03/07 09:35:46;;;;;;;;;40.00;31.75;;;;;30.79;20.53;102008.44;5012634;28;45693;-70
2022/03/07 09:38:11;;;;;;;;;38.00;33.25;;;;;30.73;20.68;102017.25;5013092;28;45570;-70
2022/03/07 09:40:37;;;;;;;;;39.50;32.25;;;;;30.49;20.04;102010.75;5012611;28;45547;-70
2022/03/07 09:43:03;;;;;;;;;37.25;31.75;;;;;30.08;19.96;102013.28;5012963;28;45694;-68
2022/03/07 09:45:29;;;;;;;;;38.75;33.75;;;;;29.99;20.17;101999.84;5012726;28;45305;-71
2022/03/07 09:47:57;;;;;;;;;37.50;32.00;;;;;30.10;19.32;102004.97;5012875;28;45305;-70
2022/03/07 09:50:22;;;;;;;;;35.75;30.25;;;;;30.07;19.03;102008.00;5012704;28;45869;-70
2022/03/07 09:52:48;;;;;;;;;34.50;29.00;;;;;29.97;20.29;101999.16;5012450;28;45490;-70
2022/03/07 09:55:16;;;;;;;;;38.50;34.25;;;;;29.90;19.69;101998.94;5012980;28;45412;-70
2022/03/07 09:57:44;;;;;;;;;36.25;31.00;;;;;29.40;19.40;101994.22;5013164;28;46025;-70
2022/03/07 10:00:10;;;;;;;;;37.00;31.00;;;;;28.73;19.28;101999.22;5012502;28;45428;-70
2022/03/07 10:02:36;;;;;;;;;36.25;32.25;;;;;28.00;19.89;101999.19;5012734;28;45554;-70
2022/03/07 10:05:03;;;;;;;;;43.00;35.25;;;;;27.26;19.41;101997.25;5013041;28;48273;-70
2022/03/07 10:07:29;;;;;;;;;34.50;29.50;;;;;26.76;20.56;101996.50;5015007;28;45515;-70
2022/03/07 10:10:08;;;;;;;;;41.50;35.00;;;;;26.06;20.09;101990.25;5014340;28;45511;-70
2022/03/07 10:12:34;;;;;;;;;41.50;32.00;;;;;25.86;21.12;101992.00;5012020;28;45503;-70
2022/03/07 10:15:11;;;;;;;;;32.25;30.50;;;;;25.51;20.94;101979.72;5018128;28;45381;-70
2022/03/07 10:17:40;;;;;;;;;37.75;32.75;;;;;24.88;20.60;101983.34;5014904;28;45436;-70
2022/03/07 10:20:06;;;;;;;;;38.25;32.50;;;;;24.21;21.02;101995.94;5014472;28;45741;-70
2022/03/07 10:22:32;;;;;;;;;36.50;32.00;;;;;23.57;21.12;101992.13;5016166;28;46397;-70
2022/03/07 10:25:01;;;;;;;;;39.75;31.75;;;;;22.89;20.94;101991.06;5018488;28;45570;-70
2022/03/07 10:27:33;;;;;;;;;34.75;29.50;;;;;22.44;21.06;101998.81;4997871;28;45506;-69
2022/03/07 10:29:59;;;;;;;;;31.25;26.50;;;;;22.13;21.55;101985.00;5014846;28;45475;-70
2022/03/07 10:32:24;;;;;;;;;32.50;30.00;;;;;21.92;22.19;101985.63;5018771;28;47012;-70
2022/03/07 10:34:50;;;;;;;;;36.50;32.50;;;;;21.85;21.88;101985.22;5022432;28;45419;-70
2022/03/07 10:37:15;;;;;;;;;33.25;30.00;;;;;21.79;22.13;101981.16;5018134;28;45943;-71
2022/03/07 10:39:50;;;;;;;;;31.75;29.50;;;;;20.99;22.03;101988.44;5017043;28;45428;-71
2022/03/07 10:42:17;;;;;;;;;37.50;32.00;;;;;19.98;22.73;101972.72;5027337;28;46293;-70
2022/03/07 10:44:42;;;;;;;;;38.25;30.25;;;;;19.20;22.90;101981.00;5018128;28;45451;-71
2022/03/07 10:47:09;;;;;;;;;33.50;29.50;;;;;18.61;23.73;101982.63;5014981;28;45569;-70
2022/03/07 10:49:34;;;;;;;;;34.75;30.00;;;;;18.26;23.93;101985.47;5015228;28;45490;-70
2022/03/07 10:52:03;;;;;;;;;28.25;25.50;;;;;17.98;24.42;101974.63;5013255;28;46540;-70
2022/03/07 10:54:29;;;;;;;;;38.25;32.00;;;;;17.68;24.72;101969.13;5020663;28;46049;-70
2022/03/07 10:56:55;;;;;;;;;37.50;32.50;;;;;17.24;24.59;101972.31;5014895;28;45379;-69
2022/03/07 10:59:28;;;;;;;;;34.50;31.25;;;;;16.85;24.88;101975.16;5014131;28;45523;-69
2022/03/07 11:02:11;;;;;;;;;38.25;32.75;;;;;16.53;25.03;101966.94;5014562;28;46681;-70
2022/03/07 11:04:38;;;;;;;;;32.75;28.75;;;;;16.35;25.86;101968.69;5024526;28;46541;-69
2022/03/07 11:07:04;;;;;;;;;34.50;28.75;;;;;16.19;25.54;101957.09;5014412;28;45372;-70
2022/03/07 11:09:30;;;;;;;;;38.50;32.25;;;;;16.02;26.03;101967.59;5026410;28;45532;-67